createdAt,value
2019-04-26T00:02:14.079Z,85.80
2019-04-26T00:04:42.555Z,86.37
2019-04-26T00:07:11.226Z,86.85
2019-04-26T00:09:40.975Z,87.14
2019-04-26T00:12:25.971Z,87.57
2019-04-26T00:15:14.337Z,88.21
2019-04-26T00:17:47.396Z,88.83
2019-04-26T00:20:17.011Z,89.63
2019-04-26T00:22:45.653Z,89.66
2019-04-26T00:25:14.435Z,89.74
2019-04-26T00:27:42.932Z,89.79
2019-04-26T00:30:13.129Z,90.22
2019-04-26T00:32:41.619Z,90.36
2019-04-26T00:35:10.165Z,90.25
2019-04-26T00:37:38.594Z,90.55
2019-04-26T00:40:07.137Z,90.96
2019-04-26T00:42:35.565Z,91.18
2019-04-26T00:45:04.407Z,91.75
2019-04-26T00:47:32.832Z,91.63
2019-04-26T00:50:01.704Z,91.46
2019-04-26T00:52:30.262Z,91.60
2019-04-26T00:54:59.453Z,92.30
2019-04-26T00:57:28.325Z,92.15
2019-04-26T00:59:57.220Z,92.88
2019-04-26T01:02:29.875Z,93.94
2019-04-26T01:04:58.330Z,94.59
2019-04-26T01:07:26.737Z,96.03
2019-04-26T01:09:55.164Z,96.34
2019-04-26T01:12:23.949Z,96.96
2019-04-26T01:14:52.584Z,97.72
2019-04-26T01:17:20.986Z,98.68
2019-04-26T01:19:49.494Z,98.68
2019-04-26T01:22:21.262Z,98.40
2019-04-26T01:24:50.663Z,98.74
2019-04-26T01:27:21.375Z,99.42
2019-04-26T01:29:51.435Z,100.00
2019-04-26T01:32:20.618Z,99.81
2019-04-26T01:34:50.597Z,100.00
2019-04-26T01:37:19.657Z,100.00
2019-04-26T01:39:53.246Z,100.00
2019-04-26T01:42:24.266Z,100.00
2019-04-26T01:44:58.933Z,100.00
2019-04-26T01:47:28.408Z,100.00
2019-04-26T01:49:57.198Z,100.00
2019-04-26T01:52:25.735Z,100.00
2019-04-26T01:54:54.201Z,100.00
2019-04-26T01:57:25.189Z,100.00
2019-04-26T01:59:57.006Z,100.00
2019-04-26T02:02:27.775Z,100.00
2019-04-26T02:04:58.390Z,100.00
2019-04-26T02:07:39.532Z,100.00
2019-04-26T02:10:13.006Z,100.00
2019-04-26T02:12:44.133Z,100.00
2019-04-26T02:15:13.110Z,100.00
2019-04-26T02:17:41.887Z,100.00
2019-04-26T02:20:10.967Z,100.00
2019-04-26T02:22:44.474Z,100.00
2019-04-26T02:25:12.981Z,100.00
2019-04-26T02:27:41.468Z,100.00
2019-04-26T02:30:10.246Z,100.00
2019-04-26T02:32:39.337Z,100.00
2019-04-26T02:35:08.309Z,100.00
2019-04-26T02:37:38.324Z,100.00
2019-04-26T02:40:09.949Z,100.00
2019-04-26T02:42:40.270Z,100.00
2019-04-26T02:45:22.539Z,100.00
2019-04-26T02:48:11.012Z,100.00
2019-04-26T02:50:41.939Z,100.00
2019-04-26T02:53:19.314Z,100.00
2019-04-26T02:55:59.881Z,100.00
2019-04-26T02:58:33.272Z,100.00
2019-04-26T03:01:02.340Z,100.00
2019-04-26T03:03:32.225Z,100.00
2019-04-26T03:06:01.691Z,100.00
2019-04-26T03:08:32.086Z,100.00
2019-04-26T03:11:04.297Z,100.00
2019-04-26T03:13:44.583Z,100.00
2019-04-26T03:16:20.076Z,100.00
2019-04-26T03:18:55.916Z,100.00
2019-04-26T03:21:32.033Z,100.00
2019-04-26T03:24:12.574Z,100.00
2019-04-26T03:26:44.184Z,100.00
2019-04-26T03:29:28.000Z,100.00
2019-04-26T03:32:36.207Z,100.00
2019-04-26T03:35:27.251Z,100.00
2019-04-26T03:38:18.393Z,100.00
2019-04-26T03:41:10.991Z,100.00
2019-04-26T03:43:58.824Z,100.00
2019-04-26T03:46:39.819Z,100.00
2019-04-26T03:49:17.813Z,100.00
2019-04-26T03:52:05.831Z,100.00
2019-04-26T03:54:37.264Z,100.00
2019-04-26T03:57:16.625Z,100.00
2019-04-26T03:59:55.404Z,100.00
2019-04-26T04:02:41.508Z,100.00
2019-04-26T04:05:18.278Z,100.00
2019-04-26T04:07:51.413Z,100.00
2019-04-26T04:10:21.775Z,100.00
2019-04-26T04:12:53.381Z,100.00
2019-04-26T04:15:44.687Z,100.00
2019-04-26T04:18:18.279Z,100.00
2019-04-26T04:21:12.517Z,100.00
2019-04-26T04:23:50.153Z,100.00
2019-04-26T04:26:21.374Z,100.00
2019-04-26T04:29:39.366Z,100.00
2019-04-26T04:31:59.809Z,100.00
2019-04-26T04:34:43.994Z,100.00
2019-04-26T04:37:16.151Z,100.00
2019-04-26T04:39:56.629Z,100.00
2019-04-26T04:42:48.759Z,100.00
2019-04-26T04:45:43.903Z,100.00
2019-04-26T04:48:26.106Z,100.00
2019-04-26T04:51:18.513Z,100.00
2019-04-26T04:53:59.067Z,100.00
2019-04-26T04:56:36.982Z,100.00
2019-04-26T04:59:13.808Z,100.00
2019-04-26T05:02:07.865Z,100.00
2019-04-26T05:04:45.207Z,100.00
2019-04-26T05:07:33.436Z,100.00
2019-04-26T05:10:08.153Z,100.00
2019-04-26T05:12:57.588Z,100.00
2019-04-26T05:15:53.486Z,100.00
2019-04-26T05:18:27.720Z,100.00
2019-04-26T05:21:08.557Z,100.00
2019-04-26T05:23:47.121Z,100.00
2019-04-26T05:26:58.349Z,100.00
2019-04-26T05:29:40.242Z,100.00
2019-04-26T05:32:17.832Z,100.00
2019-04-26T05:34:57.028Z,100.00
2019-04-26T05:37:49.227Z,100.00
2019-04-26T05:40:29.821Z,100.00
2019-04-26T05:43:18.143Z,100.00
2019-04-26T05:46:12.078Z,100.00
2019-04-26T05:49:07.604Z,100.00
2019-04-26T05:52:06.524Z,100.00
2019-04-26T05:54:52.237Z,100.00
2019-04-26T05:57:41.857Z,100.00
2019-04-26T06:00:36.259Z,100.00
2019-04-26T06:03:31.423Z,100.00
2019-04-26T06:06:22.519Z,100.00
2019-04-26T06:09:04.411Z,100.00
2019-04-26T06:11:50.261Z,100.00
2019-04-26T06:14:41.799Z,100.00
2019-04-26T06:17:20.190Z,100.00
2019-04-26T06:20:22.787Z,100.00
2019-04-26T06:22:53.716Z,100.00
2019-04-26T06:25:28.408Z,100.00
2019-04-26T06:28:02.763Z,100.00
2019-04-26T06:30:44.968Z,100.00
2019-04-26T06:33:10.573Z,100.00
2019-04-26T06:35:41.115Z,100.00
2019-04-26T06:38:20.178Z,100.00
2019-04-26T06:41:21.400Z,100.00
2019-04-26T06:44:00.396Z,99.90
2019-04-26T06:46:55.128Z,96.31
2019-04-26T06:49:38.130Z,96.89
2019-04-26T06:52:12.915Z,99.43
2019-04-26T06:55:16.297Z,100.00
2019-04-26T06:58:04.932Z,100.00
2019-04-26T07:01:01.960Z,100.00
2019-04-26T07:03:59.693Z,100.00
2019-04-26T07:07:02.874Z,100.00
2019-04-26T07:09:37.510Z,100.00
2019-04-26T07:12:28.997Z,100.00
2019-04-26T07:15:12.379Z,100.00
2019-04-26T07:18:17.465Z,100.00
2019-04-26T07:21:05.535Z,100.00
2019-04-26T07:24:01.197Z,100.00
2019-04-26T07:26:54.664Z,100.00
2019-04-26T07:29:41.260Z,100.00
2019-04-26T07:32:12.937Z,96.80
2019-04-26T07:34:55.621Z,92.54
2019-04-26T07:38:01.293Z,95.64
2019-04-26T07:40:54.271Z,95.73
2019-04-26T07:43:56.251Z,92.66
2019-04-26T07:46:43.271Z,88.10
2019-04-26T07:49:23.524Z,78.97
2019-04-26T07:52:04.340Z,78.23
2019-04-26T07:55:09.265Z,77.26
2019-04-26T07:57:55.948Z,78.77
2019-04-26T08:00:29.174Z,76.08
2019-04-26T08:03:15.019Z,81.36
2019-04-26T08:05:53.389Z,81.40
2019-04-26T08:08:24.993Z,76.66
2019-04-26T08:11:04.405Z,70.63
2019-04-26T08:13:34.750Z,69.02
2019-04-26T08:16:08.513Z,72.90
2019-04-26T08:18:41.933Z,72.44
2019-04-26T08:21:17.379Z,70.16
2019-04-26T08:23:52.494Z,70.66
2019-04-26T08:26:22.781Z,68.31
2019-04-26T08:28:51.980Z,66.43
2019-04-26T08:31:24.416Z,65.52
2019-04-26T08:33:54.398Z,65.85
2019-04-26T08:36:27.143Z,65.70
2019-04-26T08:38:55.007Z,66.78
2019-04-26T08:41:23.779Z,67.63
2019-04-26T08:44:11.142Z,67.88
2019-04-26T08:46:43.133Z,68.18
2019-04-26T08:49:17.599Z,63.36
2019-04-26T08:51:46.614Z,63.31
2019-04-26T08:54:20.870Z,60.60
2019-04-26T08:56:52.450Z,61.50
2019-04-26T08:59:25.839Z,58.88
2019-04-26T09:01:57.158Z,59.03
2019-04-26T09:04:28.116Z,57.87
2019-04-26T09:07:01.190Z,57.10
2019-04-26T09:09:32.437Z,59.57
2019-04-26T09:12:08.187Z,58.97
2019-04-26T09:14:35.853Z,57.83
2019-04-26T09:17:04.814Z,57.72
2019-04-26T09:19:33.221Z,56.63
2019-04-26T09:22:13.537Z,58.45
2019-04-26T09:24:46.330Z,56.20
2019-04-26T09:27:17.133Z,57.71
2019-04-26T09:30:05.016Z,54.96
2019-04-26T09:32:34.647Z,54.31
2019-04-26T09:35:03.084Z,56.31
2019-04-26T09:37:31.489Z,59.67
2019-04-26T09:40:09.679Z,60.53
2019-04-26T09:42:39.375Z,57.32
2019-04-26T09:45:09.770Z,56.41
2019-04-26T09:47:42.749Z,56.48
2019-04-26T09:50:15.351Z,58.42
2019-04-26T09:52:50.407Z,57.48
2019-04-26T09:55:18.809Z,57.36
2019-04-26T09:57:47.244Z,54.56
2019-04-26T10:00:20.695Z,55.05
2019-04-26T10:02:49.126Z,56.40
2019-04-26T10:05:22.055Z,55.58
2019-04-26T10:07:47.751Z,55.52
2019-04-26T10:10:23.027Z,56.36
2019-04-26T10:12:52.411Z,54.88
2019-04-26T10:15:28.284Z,57.23
2019-04-26T10:17:56.749Z,54.92
2019-04-26T10:20:25.155Z,54.08
2019-04-26T10:22:53.581Z,54.04
2019-04-26T10:25:22.050Z,54.42
2019-04-26T10:27:50.549Z,54.62
2019-04-26T10:30:19.023Z,54.14
2019-04-26T10:32:47.458Z,54.06
2019-04-26T10:35:17.524Z,54.76
2019-04-26T10:37:48.207Z,54.35
2019-04-26T10:40:16.425Z,55.74
2019-04-26T10:42:44.850Z,57.91
2019-04-26T10:45:14.841Z,56.32
2019-04-26T10:47:44.187Z,58.75
2019-04-26T10:50:12.756Z,59.39
2019-04-26T10:52:53.423Z,58.62
2019-04-26T10:55:20.376Z,59.99
2019-04-26T10:57:52.932Z,60.31
2019-04-26T11:00:38.298Z,56.88
2019-04-26T11:03:06.725Z,57.61
2019-04-26T11:05:35.197Z,61.04
2019-04-26T11:08:03.870Z,60.50
2019-04-26T11:10:32.544Z,62.94
2019-04-26T11:13:01.046Z,63.69
2019-04-26T11:15:32.788Z,61.05
2019-04-26T11:17:59.610Z,59.04
2019-04-26T11:20:28.007Z,61.29
2019-04-26T11:22:56.438Z,63.66
2019-04-26T11:25:28.286Z,63.78
2019-04-26T11:27:55.002Z,62.31
2019-04-26T11:30:23.473Z,62.32
2019-04-26T11:32:51.918Z,62.29
2019-04-26T11:35:20.413Z,61.76
2019-04-26T11:37:50.762Z,61.14
2019-04-26T11:40:19.020Z,60.27
2019-04-26T11:42:47.462Z,59.66
2019-04-26T11:45:17.585Z,61.99
2019-04-26T11:47:55.894Z,62.84
2019-04-26T11:50:16.558Z,61.93
2019-04-26T11:52:46.235Z,63.76
2019-04-26T11:55:15.019Z,64.11
2019-04-26T11:57:47.007Z,63.56
2019-04-26T12:00:15.680Z,63.35
2019-04-26T12:02:46.278Z,63.27
2019-04-26T12:05:25.073Z,65.82
2019-04-26T12:07:57.869Z,66.96
2019-04-26T12:10:27.252Z,67.34
2019-04-26T12:13:05.157Z,66.83
2019-04-26T12:15:30.423Z,67.20
2019-04-26T12:17:58.605Z,64.99
2019-04-26T12:20:26.801Z,67.25
2019-04-26T12:22:56.420Z,66.68
2019-04-26T12:25:24.847Z,68.92
2019-04-26T12:27:53.687Z,70.75
2019-04-26T12:30:26.353Z,68.64
2019-04-26T12:32:52.418Z,66.86
2019-04-26T12:35:20.821Z,63.76
2019-04-26T12:37:50.596Z,64.71
2019-04-26T12:40:19.589Z,65.95
2019-04-26T12:42:48.390Z,66.65
2019-04-26T12:45:35.435Z,68.47
2019-04-26T12:48:17.824Z,67.32
2019-04-26T12:50:46.269Z,70.23
2019-04-26T12:53:14.669Z,70.71
2019-04-26T12:55:43.099Z,73.34
2019-04-26T12:58:15.195Z,68.93
2019-04-26T13:00:53.235Z,69.99
2019-04-26T13:03:20.156Z,70.79
2019-04-26T13:05:41.974Z,68.58
2019-04-26T13:08:13.207Z,69.01
2019-04-26T13:10:44.825Z,69.98
2019-04-26T13:13:23.021Z,72.22
2019-04-26T13:16:02.130Z,74.48
2019-04-26T13:18:31.478Z,75.17
2019-04-26T13:21:02.987Z,74.27
2019-04-26T13:23:31.266Z,73.66
2019-04-26T13:26:01.424Z,73.75
2019-04-26T13:28:30.173Z,71.25
2019-04-26T13:30:58.591Z,71.31
2019-04-26T13:33:27.935Z,70.36
2019-04-26T13:36:04.395Z,70.15
2019-04-26T13:38:27.285Z,69.61
2019-04-26T13:40:59.444Z,66.87
2019-04-26T13:43:27.092Z,68.75
2019-04-26T13:45:57.699Z,68.81
2019-04-26T13:48:43.626Z,70.85
2019-04-26T13:51:14.151Z,70.93
2019-04-26T13:53:42.559Z,73.30
2019-04-26T13:56:10.957Z,71.39
2019-04-26T13:58:39.394Z,68.98
2019-04-26T14:01:09.066Z,67.04
2019-04-26T14:03:37.496Z,70.34
2019-04-26T14:06:05.969Z,70.72
2019-04-26T14:08:34.400Z,69.91
2019-04-26T14:11:02.809Z,70.92
2019-04-26T14:13:31.234Z,73.46
2019-04-26T14:15:59.644Z,75.14
2019-04-26T14:18:28.214Z,75.64
2019-04-26T14:20:59.023Z,76.23
2019-04-26T14:23:45.363Z,74.30
2019-04-26T14:26:35.316Z,72.75
2019-04-26T14:29:01.832Z,73.68
2019-04-26T14:31:30.243Z,75.03
2019-04-26T14:34:01.214Z,72.96
2019-04-26T14:36:28.866Z,74.97
2019-04-26T14:39:05.687Z,73.68
2019-04-26T14:41:27.487Z,76.00
2019-04-26T14:43:56.840Z,76.50
2019-04-26T14:46:25.419Z,76.71
2019-04-26T14:49:01.819Z,76.88
2019-04-26T14:51:23.971Z,77.92
2019-04-26T14:53:52.407Z,77.84
2019-04-26T14:56:24.593Z,78.28
2019-04-26T14:58:52.259Z,79.49
2019-04-26T15:01:22.529Z,80.18
2019-04-26T15:04:08.773Z,80.48
2019-04-26T15:06:38.816Z,80.48
2019-04-26T15:09:17.035Z,80.61
2019-04-26T15:11:37.391Z,81.77
2019-04-26T15:14:05.882Z,82.48
2019-04-26T15:16:34.286Z,80.85
2019-04-26T15:19:06.319Z,80.31
2019-04-26T15:21:34.339Z,81.41
2019-04-26T15:24:04.966Z,79.89
2019-04-26T15:26:33.074Z,79.62
2019-04-26T15:29:02.469Z,78.63
2019-04-26T15:31:33.084Z,78.87
2019-04-26T15:34:03.249Z,79.75
2019-04-26T15:36:31.840Z,81.56
2019-04-26T15:39:02.695Z,83.54
2019-04-26T15:41:33.242Z,84.62
2019-04-26T15:44:03.923Z,85.85
2019-04-26T15:46:50.027Z,86.84
2019-04-26T15:49:20.079Z,87.81
2019-04-26T15:51:48.486Z,88.29
2019-04-26T15:54:17.841Z,88.56
2019-04-26T15:56:49.363Z,88.58
2019-04-26T15:59:18.341Z,88.68
2019-04-26T16:01:49.248Z,89.67
2019-04-26T16:04:18.428Z,89.80
2019-04-26T16:06:46.972Z,90.25
2019-04-26T16:09:19.840Z,89.58
2019-04-26T16:11:49.571Z,89.91
2019-04-26T16:14:15.800Z,89.86
2019-04-26T16:16:44.232Z,90.97
2019-04-26T16:19:13.078Z,90.27
2019-04-26T16:21:42.580Z,91.23
2019-04-26T16:24:12.826Z,92.33
2019-04-26T16:26:44.522Z,91.68
2019-04-26T16:29:18.405Z,92.43
2019-04-26T16:31:47.137Z,93.69
2019-04-26T16:34:17.169Z,95.12
2019-04-26T16:36:45.613Z,95.60
2019-04-26T16:39:14.388Z,94.70
2019-04-26T16:41:42.815Z,95.64
2019-04-26T16:44:12.885Z,95.07
2019-04-26T16:46:43.491Z,95.25
2019-04-26T16:49:14.065Z,95.75
2019-04-26T16:51:43.656Z,95.89
2019-04-26T16:54:21.238Z,96.97
2019-04-26T16:56:43.860Z,97.43
2019-04-26T16:59:14.376Z,97.82
2019-04-26T17:01:47.158Z,97.95
2019-04-26T17:04:14.128Z,98.32
2019-04-26T17:06:44.815Z,98.28
2019-04-26T17:09:14.329Z,99.87
2019-04-26T17:11:43.578Z,100.00
2019-04-26T17:14:13.198Z,100.00
2019-04-26T17:16:44.026Z,100.00
2019-04-26T17:19:13.671Z,100.00
2019-04-26T17:21:44.029Z,100.00
2019-04-26T17:24:26.352Z,100.00
2019-04-26T17:26:59.107Z,100.00
2019-04-26T17:29:27.514Z,100.00
2019-04-26T17:31:55.948Z,100.00
2019-04-26T17:34:28.984Z,100.00
2019-04-26T17:36:54.523Z,100.00
2019-04-26T17:39:22.936Z,100.00
2019-04-26T17:41:54.258Z,100.00
2019-04-26T17:44:26.455Z,100.00
2019-04-26T17:46:56.359Z,100.00
2019-04-26T17:49:27.114Z,100.00
2019-04-26T17:51:57.826Z,100.00
2019-04-26T17:54:41.649Z,100.00
2019-04-26T17:56:52.284Z,100.00
2019-04-26T17:59:31.398Z,100.00
2019-04-26T18:01:57.318Z,100.00
2019-04-26T18:04:31.983Z,100.00
2019-04-26T18:06:57.821Z,100.00
2019-04-26T18:09:38.995Z,100.00
2019-04-26T18:11:55.365Z,100.00
2019-04-26T18:14:25.544Z,100.00
2019-04-26T18:16:57.183Z,100.00
2019-04-26T18:19:30.362Z,100.00
2019-04-26T18:22:12.965Z,100.00
2019-04-26T18:24:43.167Z,100.00
2019-04-26T18:27:11.711Z,100.00
2019-04-26T18:29:40.118Z,100.00
2019-04-26T18:32:08.765Z,100.00
2019-04-26T18:34:40.439Z,100.00
2019-04-26T18:37:07.633Z,100.00
2019-04-26T18:39:36.207Z,100.00
2019-04-26T18:42:05.972Z,100.00
2019-04-26T18:44:38.960Z,100.00
2019-04-26T18:47:06.532Z,100.00
2019-04-26T18:49:34.943Z,100.00
2019-04-26T18:52:03.760Z,100.00
2019-04-26T18:54:34.648Z,100.00
2019-04-26T18:57:03.404Z,100.00
2019-04-26T18:59:31.796Z,100.00
2019-04-26T19:02:00.208Z,100.00
2019-04-26T19:04:28.650Z,100.00
2019-04-26T19:06:57.129Z,100.00
2019-04-26T19:09:26.999Z,100.00
2019-04-26T19:11:56.193Z,100.00
2019-04-26T19:14:49.233Z,99.08
2019-04-26T19:17:31.773Z,99.50
2019-04-26T19:20:18.868Z,100.00
2019-04-26T19:22:50.412Z,100.00
2019-04-26T19:25:23.127Z,100.00
2019-04-26T19:27:50.309Z,100.00
2019-04-26T19:30:21.460Z,100.00
2019-04-26T19:32:52.012Z,100.00
2019-04-26T19:35:21.778Z,100.00
2019-04-26T19:37:51.804Z,100.00
2019-04-26T19:40:20.400Z,100.00
2019-04-26T19:42:51.372Z,100.00
2019-04-26T19:45:39.544Z,100.00
2019-04-26T19:48:15.823Z,100.00
2019-04-26T19:50:58.043Z,100.00
2019-04-26T19:53:36.581Z,100.00
2019-04-26T19:56:06.700Z,99.83
2019-04-26T19:58:36.770Z,99.78
2019-04-26T20:01:05.311Z,99.83
2019-04-26T20:03:33.993Z,100.00
2019-04-26T20:06:02.444Z,100.00
2019-04-26T20:08:35.475Z,100.00
2019-04-26T20:11:01.436Z,100.00
2019-04-26T20:13:31.565Z,100.00
2019-04-26T20:16:02.678Z,100.00
2019-04-26T20:18:34.417Z,100.00
2019-04-26T20:21:02.381Z,100.00
2019-04-26T20:23:31.725Z,100.00
2019-04-26T20:26:06.930Z,100.00
2019-04-26T20:28:34.251Z,100.00
2019-04-26T20:31:07.669Z,100.00
2019-04-26T20:33:35.092Z,100.00
2019-04-26T20:36:04.825Z,100.00
2019-04-26T20:38:42.129Z,100.00
2019-04-26T20:41:03.621Z,100.00
2019-04-26T20:43:32.219Z,100.00
2019-04-26T20:46:13.771Z,100.00
2019-04-26T20:48:33.072Z,100.00
2019-04-26T20:51:02.214Z,100.00
2019-04-26T20:53:40.107Z,100.00
2019-04-26T20:56:03.820Z,100.00
2019-04-26T20:58:31.232Z,100.00
2019-04-26T21:01:01.364Z,100.00
2019-04-26T21:03:29.956Z,100.00
2019-04-26T21:06:00.573Z,100.00
2019-04-26T21:08:28.605Z,100.00
2019-04-26T21:11:00.211Z,100.00
2019-04-26T21:13:30.758Z,100.00
2019-04-26T21:15:58.707Z,100.00
2019-04-26T21:18:27.547Z,100.00
2019-04-26T21:20:55.977Z,100.00
2019-04-26T21:23:24.396Z,100.00
2019-04-26T21:26:14.733Z,100.00
2019-04-26T21:28:42.667Z,100.00
2019-04-26T21:31:13.469Z,100.00
2019-04-26T21:33:43.516Z,100.00
2019-04-26T21:36:25.840Z,100.00
2019-04-26T21:38:59.400Z,100.00
2019-04-26T21:41:34.993Z,100.00
2019-04-26T21:44:03.407Z,100.00
2019-04-26T21:46:33.507Z,100.00
2019-04-26T21:49:03.591Z,100.00
2019-04-26T21:51:33.859Z,100.00
2019-04-26T21:54:03.850Z,100.00
2019-04-26T21:56:33.770Z,100.00
2019-04-26T21:59:03.682Z,100.00
2019-04-26T22:01:33.106Z,100.00
2019-04-26T22:04:03.005Z,100.00
2019-04-26T22:06:33.471Z,100.00
2019-04-26T22:09:09.129Z,100.00
2019-04-26T22:11:37.560Z,100.00
2019-04-26T22:14:07.614Z,100.00
2019-04-26T22:16:38.173Z,100.00
2019-04-26T22:19:23.987Z,100.00
2019-04-26T22:21:59.308Z,100.00
2019-04-26T22:24:30.048Z,100.00
2019-04-26T22:26:58.481Z,100.00
2019-04-26T22:29:26.893Z,100.00
2019-04-26T22:31:55.332Z,100.00
2019-04-26T22:34:23.740Z,100.00
2019-04-26T22:36:53.684Z,100.00
2019-04-26T22:39:22.804Z,100.00
2019-04-26T22:41:53.425Z,100.00
2019-04-26T22:44:34.413Z,100.00
2019-04-26T22:47:07.407Z,100.00
2019-04-26T22:49:41.773Z,100.00
2019-04-26T22:52:10.378Z,100.00
2019-04-26T22:54:37.723Z,100.00
2019-04-26T22:57:08.233Z,100.00
2019-04-26T22:59:38.098Z,100.00
2019-04-26T23:02:08.478Z,100.00
2019-04-26T23:04:36.916Z,100.00
2019-04-26T23:07:06.965Z,100.00
2019-04-26T23:09:35.406Z,100.00
2019-04-26T23:12:05.792Z,100.00
2019-04-26T23:14:41.671Z,100.00
2019-04-26T23:17:14.446Z,100.00
2019-04-26T23:19:44.794Z,100.00
2019-04-26T23:22:13.268Z,100.00
2019-04-26T23:24:42.789Z,100.00
2019-04-26T23:27:14.868Z,100.00
2019-04-26T23:29:43.568Z,100.00
2019-04-26T23:32:18.351Z,100.00
2019-04-26T23:34:44.193Z,100.00
2019-04-26T23:37:13.147Z,100.00
2019-04-26T23:39:44.488Z,100.00
2019-04-26T23:42:12.332Z,100.00
2019-04-26T23:44:43.925Z,100.00
2019-04-26T23:47:20.509Z,100.00
2019-04-26T23:49:43.362Z,100.00
2019-04-26T23:52:14.430Z,100.00
2019-04-26T23:54:42.128Z,100.00
2019-04-26T23:57:10.541Z,100.00
2019-04-26T23:59:39.348Z,100.00
